Time;durP1;ratioP1;P1;durP2;ratioP2;P2;SDS_P1;SDS_P2;PMS_P1;PMS_P2;Temp;Humidity;BMP_temperature;BMP_pressure;BME280_temperature;BME280_humidity;BME280_pressure;Samples;Min_cycle;Max_cycle;Signal;HPM_P1;HPM_P2
2023/10/16 00:01:28;;;;;;;12.20;9.40;;;;;;;;;;2610358;54;20393;-80
2023/10/16 00:03:58;;;;;;;16.33;8.73;;;;;;;;;;2611618;54;20425;-80
2023/10/16 00:06:24;;;;;;;13.73;9.33;;;;;;;;;;2611477;54;20427;-81
2023/10/16 00:08:55;;;;;;;14.40;9.60;;;;;;;;;;2610666;54;20531;-80
2023/10/16 00:11:25;;;;;;;12.23;8.47;;;;;;;;;;2610764;54;21074;-81
2023/10/16 00:13:52;;;;;;;14.20;9.97;;;;;;;;;;2611755;39;20904;-81
2023/10/16 00:16:20;;;;;;;17.20;9.43;;;;;;;;;;2611588;39;20799;-81
2023/10/16 00:18:47;;;;;;;12.27;9.00;;;;;;;;;;2609970;54;20488;-81
2023/10/16 00:21:13;;;;;;;13.40;10.30;;;;;;;;;;2611414;39;20805;-81
2023/10/16 00:23:40;;;;;;;14.83;9.93;;;;;;;;;;2610480;54;21014;-80
2023/10/16 00:26:10;;;;;;;14.23;9.60;;;;;;;;;;2610592;39;20875;-80
2023/10/16 00:28:36;;;;;;;12.20;8.37;;;;;;;;;;2608917;54;20500;-73
2023/10/16 00:31:08;;;;;;;11.93;9.10;;;;;;;;;;2608288;47;20433;-73
2023/10/16 00:33:34;;;;;;;11.23;9.47;;;;;;;;;;2608272;54;20416;-74
2023/10/16 00:36:00;;;;;;;11.37;8.50;;;;;;;;;;2607930;54;20435;-74
2023/10/16 00:38:26;;;;;;;10.77;8.60;;;;;;;;;;2607642;54;20438;-74
2023/10/16 00:41:05;;;;;;;9.73;8.73;;;;;;;;;;2608242;54;20419;-74
2023/10/16 00:43:34;;;;;;;18.03;10.30;;;;;;;;;;2608203;54;20424;-73
2023/10/16 00:46:05;;;;;;;11.43;9.57;;;;;;;;;;2608027;54;20489;-72
2023/10/16 00:48:32;;;;;;;17.60;9.67;;;;;;;;;;2607872;54;20419;-73
2023/10/16 00:51:02;;;;;;;12.73;8.77;;;;;;;;;;2608071;54;20478;-73
2023/10/16 00:53:28;;;;;;;11.87;8.63;;;;;;;;;;2608070;54;20438;-73
2023/10/16 00:55:55;;;;;;;11.17;9.40;;;;;;;;;;2608181;54;20439;-72
2023/10/16 00:58:21;;;;;;;13.67;9.23;;;;;;;;;;2608134;47;20414;-73
2023/10/16 01:00:48;;;;;;;10.47;9.33;;;;;;;;;;2607908;54;20428;-73
2023/10/16 01:03:16;;;;;;;11.50;8.33;;;;;;;;;;2607894;46;20423;-74
2023/10/16 01:05:42;;;;;;;12.10;8.77;;;;;;;;;;2608370;54;20858;-73
2023/10/16 01:08:11;;;;;;;12.90;9.80;;;;;;;;;;2607996;54;20416;-72
2023/10/16 01:10:40;;;;;;;12.20;9.03;;;;;;;;;;2607402;54;20445;-72
2023/10/16 01:13:11;;;;;;;12.37;10.00;;;;;;;;;;2608245;54;20426;-73
2023/10/16 01:15:43;;;;;;;17.47;11.07;;;;;;;;;;2608083;54;20437;-73
2023/10/16 01:18:11;;;;;;;11.43;10.23;;;;;;;;;;2608134;54;20451;-73
2023/10/16 01:20:38;;;;;;;9.70;8.70;;;;;;;;;;2609426;54;20428;-72
2023/10/16 01:23:07;;;;;;;14.27;9.07;;;;;;;;;;2609611;47;20441;-73
2023/10/16 01:25:33;;;;;;;18.87;9.00;;;;;;;;;;2610196;39;20764;-73
2023/10/16 01:28:00;;;;;;;12.33;9.80;;;;;;;;;;2607851;54;20490;-72
2023/10/16 01:30:26;;;;;;;12.53;9.27;;;;;;;;;;2606127;54;20411;-71
2023/10/16 01:32:52;;;;;;;11.40;10.00;;;;;;;;;;2609277;54;20429;-72
2023/10/16 01:35:18;;;;;;;10.83;9.10;;;;;;;;;;2607665;54;20379;-72
2023/10/16 01:37:46;;;;;;;13.60;10.30;;;;;;;;;;2610677;39;20624;-73
2023/10/16 01:40:21;;;;;;;14.50;10.67;;;;;;;;;;2610317;54;20442;-72
2023/10/16 01:42:47;;;;;;;10.57;9.37;;;;;;;;;;2607571;54;20422;-74
2023/10/16 01:45:15;;;;;;;16.23;10.20;;;;;;;;;;2606793;54;20431;-73
2023/10/16 01:47:41;;;;;;;13.07;10.07;;;;;;;;;;2607369;54;20426;-73
2023/10/16 01:50:13;;;;;;;14.07;10.17;;;;;;;;;;2607632;54;20953;-73
2023/10/16 01:52:40;;;;;;;12.70;10.10;;;;;;;;;;2607790;46;20447;-73
2023/10/16 01:55:09;;;;;;;11.57;9.47;;;;;;;;;;2608341;47;20499;-69
2023/10/16 01:57:35;;;;;;;12.93;10.63;;;;;;;;;;2607615;47;20435;-69
2023/10/16 02:00:05;;;;;;;13.30;10.80;;;;;;;;;;2606952;54;20391;-67
2023/10/16 02:02:31;;;;;;;18.50;11.37;;;;;;;;;;2607716;54;20404;-67
2023/10/16 02:04:58;;;;;;;13.90;10.77;;;;;;;;;;2609142;46;21060;-67
2023/10/16 02:07:33;;;;;;;14.93;11.97;;;;;;;;;;2608528;54;20428;-68
2023/10/16 02:09:59;;;;;;;11.10;9.47;;;;;;;;;;2608130;54;20427;-69
2023/10/16 02:12:25;;;;;;;15.70;11.10;;;;;;;;;;2607752;54;20416;-69
2023/10/16 02:14:51;;;;;;;15.77;10.87;;;;;;;;;;2607771;47;20538;-70
2023/10/16 02:17:21;;;;;;;16.27;10.67;;;;;;;;;;2607544;54;20435;-70
2023/10/16 02:19:47;;;;;;;13.17;10.50;;;;;;;;;;2607519;46;20418;-69
2023/10/16 02:22:16;;;;;;;20.93;11.87;;;;;;;;;;2608004;54;20461;-70
2023/10/16 02:24:44;;;;;;;20.90;10.70;;;;;;;;;;2610754;54;20412;-69
2023/10/16 02:27:12;;;;;;;12.60;9.30;;;;;;;;;;2610482;54;21317;-69
2023/10/16 02:29:45;;;;;;;19.33;12.07;;;;;;;;;;2610295;39;20791;-69
2023/10/16 02:32:12;;;;;;;17.73;10.87;;;;;;;;;;2610316;54;20442;-69
2023/10/16 02:34:38;;;;;;;16.37;11.13;;;;;;;;;;2609830;54;20367;-69
2023/10/16 02:37:09;;;;;;;13.17;10.63;;;;;;;;;;2610482;54;20520;-69
2023/10/16 02:39:37;;;;;;;17.60;11.20;;;;;;;;;;2610106;54;20520;-69
2023/10/16 02:42:08;;;;;;;16.13;10.70;;;;;;;;;;2607635;47;20536;-69
2023/10/16 02:44:38;;;;;;;20.03;11.87;;;;;;;;;;2607749;54;20517;-68
2023/10/16 02:47:06;;;;;;;19.40;11.23;;;;;;;;;;2607779;47;20449;-69
2023/10/16 02:49:33;;;;;;;19.30;11.60;;;;;;;;;;2607584;54;20415;-69
2023/10/16 02:51:59;;;;;;;14.30;11.03;;;;;;;;;;2607570;54;20411;-69
2023/10/16 02:54:25;;;;;;;13.90;12.00;;;;;;;;;;2608507;54;20419;-76
2023/10/16 02:56:59;;;;;;;15.43;11.20;;;;;;;;;;2609950;46;20414;-76
2023/10/16 02:59:25;;;;;;;18.40;11.20;;;;;;;;;;2607818;54;20408;-76
2023/10/16 03:01:53;;;;;;;19.10;11.40;;;;;;;;;;2608058;54;20407;-76
2023/10/16 03:04:23;;;;;;;14.73;11.07;;;;;;;;;;2621288;39;20790;-89
2023/10/16 03:06:53;;;;;;;17.43;11.90;;;;;;;;;;2627945;51;20972;-88
2023/10/16 03:09:31;;;;;;;16.70;13.13;;;;;;;;;;2627847;54;20371;-88
2023/10/16 03:12:08;;;;;;;14.07;11.50;;;;;;;;;;2629654;54;20400;-89
2023/10/16 03:14:49;;;;;;;17.37;12.87;;;;;;;;;;2629594;54;20379;-89
2023/10/16 03:17:25;;;;;;;16.53;12.97;;;;;;;;;;2628199;47;20374;-89
2023/10/16 03:19:54;;;;;;;15.33;12.97;;;;;;;;;;2630479;39;21142;-89
2023/10/16 03:22:21;;;;;;;26.57;12.40;;;;;;;;;;2630070;47;20396;-89
2023/10/16 03:24:47;;;;;;;18.10;14.27;;;;;;;;;;2629927;54;20380;-89
2023/10/16 03:27:27;;;;;;;22.43;14.10;;;;;;;;;;2631115;47;20423;-89
2023/10/16 03:29:54;;;;;;;20.33;13.93;;;;;;;;;;2628538;54;20393;-75
2023/10/16 03:32:20;;;;;;;20.70;13.63;;;;;;;;;;2613540;54;20986;-74
2023/10/16 03:34:48;;;;;;;17.27;12.70;;;;;;;;;;2613423;46;20422;-75
2023/10/16 03:37:16;;;;;;;22.83;12.20;;;;;;;;;;2613783;47;20958;-75
2023/10/16 03:39:44;;;;;;;17.27;13.57;;;;;;;;;;2613450;54;20405;-77
2023/10/16 03:42:17;;;;;;;20.03;12.33;;;;;;;;;;2614186;54;20538;-75
2023/10/16 03:44:45;;;;;;;17.50;12.93;;;;;;;;;;2613535;54;20443;-75
2023/10/16 03:47:14;;;;;;;24.70;14.00;;;;;;;;;;2613935;54;20991;-75
2023/10/16 03:49:46;;;;;;;15.27;11.33;;;;;;;;;;2614541;54;20471;-75
2023/10/16 03:52:19;;;;;;;15.57;12.27;;;;;;;;;;2614444;54;20399;-74
2023/10/16 03:54:45;;;;;;;21.13;15.07;;;;;;;;;;2613699;54;20432;-74
2023/10/16 03:57:13;;;;;;;20.60;13.63;;;;;;;;;;2609673;54;21526;-75
2023/10/16 03:59:41;;;;;;;21.00;15.00;;;;;;;;;;2607368;54;20435;-75
2023/10/16 04:02:11;;;;;;;16.53;13.97;;;;;;;;;;2610137;54;20419;-75
2023/10/16 04:04:37;;;;;;;19.63;14.30;;;;;;;;;;2609120;46;20425;-75
2023/10/16 04:07:03;;;;;;;22.47;15.60;;;;;;;;;;2609427;39;20888;-75
2023/10/16 04:09:40;;;;;;;28.80;15.17;;;;;;;;;;2608249;54;20394;-75
2023/10/16 04:12:07;;;;;;;18.27;14.20;;;;;;;;;;2607581;51;20459;-75
2023/10/16 04:14:45;;;;;;;18.50;13.40;;;;;;;;;;2609429;54;20413;-75
2023/10/16 04:17:11;;;;;;;16.77;14.27;;;;;;;;;;2610428;54;20415;-75
2023/10/16 04:20:42;;;;;;;21.30;15.07;;;;;;;;;;2609545;54;20562;-75
2023/10/16 04:22:49;;;;;;;21.00;13.90;;;;;;;;;;2608197;54;20431;-75
2023/10/16 04:25:19;;;;;;;23.93;14.40;;;;;;;;;;2607644;46;20407;-75
2023/10/16 04:27:45;;;;;;;20.10;15.47;;;;;;;;;;2608653;54;20403;-77
2023/10/16 04:35:59;;;;;;;17.93;14.80;;;;;;;;;;2609167;54;20386;-82
2023/10/16 04:38:30;;;;;;;21.43;15.73;;;;;;;;;;2607438;54;20457;-74
2023/10/16 04:46:55;;;;;;;17.30;15.23;;;;;;;;;;2607404;47;20411;-75
2023/10/16 04:49:19;;;;;;;24.47;17.20;;;;;;;;;;2610015;47;20435;-75
2023/10/16 04:52:01;;;;;;;22.40;15.97;;;;;;;;;;2611297;54;20387;-75
2023/10/16 04:59:59;;;;;;;20.40;16.27;;;;;;;;;;2611267;54;20493;-75
2023/10/16 05:02:40;;;;;;;26.33;17.50;;;;;;;;;;2611091;54;20503;-75
2023/10/16 05:07:53;;;;;;;23.83;16.43;;;;;;;;;;2613261;54;20552;-75
2023/10/16 05:13:37;;;;;;;28.23;16.80;;;;;;;;;;2613449;54;20402;-74
2023/10/16 05:19:02;;;;;;;21.27;16.27;;;;;;;;;;2613723;54;20420;-75
2023/10/16 06:16:31;;;;;;;28.33;20.47;;;;;;;;;;2614722;54;20472;-75
2023/10/16 06:18:59;;;;;;;30.43;21.80;;;;;;;;;;2614357;54;20399;-74
2023/10/16 06:21:26;;;;;;;33.93;20.33;;;;;;;;;;2613913;47;20428;-75
2023/10/16 06:23:52;;;;;;;28.20;17.50;;;;;;;;;;2614261;54;20457;-75
2023/10/16 06:26:22;;;;;;;34.07;19.07;;;;;;;;;;2614905;39;20866;-75
2023/10/16 06:28:55;;;;;;;31.70;19.20;;;;;;;;;;2613842;47;20419;-75
2023/10/16 06:31:24;;;;;;;27.27;19.17;;;;;;;;;;2614692;54;20446;-75
2023/10/16 06:33:59;;;;;;;30.93;17.23;;;;;;;;;;2613911;54;20464;-74
2023/10/16 06:36:25;;;;;;;33.83;20.13;;;;;;;;;;2614397;54;20453;-76
2023/10/16 06:38:53;;;;;;;32.07;19.80;;;;;;;;;;2615267;39;20909;-75
2023/10/16 06:41:20;;;;;;;36.33;19.20;;;;;;;;;;2614257;54;20432;-75
2023/10/16 06:43:47;;;;;;;36.73;21.70;;;;;;;;;;2615178;54;20425;-75
2023/10/16 06:46:25;;;;;;;40.07;20.30;;;;;;;;;;2614168;39;20881;-75
2023/10/16 06:48:54;;;;;;;31.60;20.40;;;;;;;;;;2615255;54;20394;-75
2023/10/16 06:51:30;;;;;;;31.13;20.47;;;;;;;;;;2614760;54;20423;-75
2023/10/16 06:53:56;;;;;;;30.73;21.40;;;;;;;;;;2614656;54;20490;-74
2023/10/16 06:56:32;;;;;;;35.37;20.77;;;;;;;;;;2612801;54;20567;-75
2023/10/16 06:58:59;;;;;;;29.83;17.80;;;;;;;;;;2611419;47;20424;-74
2023/10/16 07:01:26;;;;;;;46.83;24.63;;;;;;;;;;2611244;54;20512;-75
2023/10/16 07:03:54;;;;;;;45.27;22.40;;;;;;;;;;2612875;54;20498;-76
2023/10/16 07:06:24;;;;;;;28.20;17.30;;;;;;;;;;2612680;54;20443;-75
2023/10/16 07:08:51;;;;;;;43.67;22.10;;;;;;;;;;2611898;54;20415;-74
2023/10/16 07:11:19;;;;;;;39.00;19.13;;;;;;;;;;2611347;54;20418;-75
2023/10/16 07:13:45;;;;;;;37.87;20.43;;;;;;;;;;2612114;54;21155;-75
2023/10/16 07:16:11;;;;;;;34.30;19.10;;;;;;;;;;2612753;54;20483;-75
2023/10/16 07:18:42;;;;;;;36.53;24.03;;;;;;;;;;2612410;54;20414;-75
2023/10/16 07:21:10;;;;;;;40.30;22.17;;;;;;;;;;2612316;54;20371;-75
2023/10/16 07:23:38;;;;;;;36.97;21.93;;;;;;;;;;2612383;54;20399;-75
2023/10/16 07:26:09;;;;;;;39.70;24.33;;;;;;;;;;2613575;54;20422;-75
2023/10/16 07:28:35;;;;;;;37.17;21.87;;;;;;;;;;2614332;54;20398;-75
2023/10/16 07:31:05;;;;;;;50.33;25.63;;;;;;;;;;2614111;54;20446;-75
2023/10/16 07:33:34;;;;;;;42.17;22.03;;;;;;;;;;2615143;39;20808;-75
2023/10/16 07:36:01;;;;;;;39.83;23.53;;;;;;;;;;2614444;47;20398;-75
2023/10/16 07:38:29;;;;;;;34.00;21.40;;;;;;;;;;2614142;47;20527;-75
2023/10/16 07:40:59;;;;;;;35.87;20.53;;;;;;;;;;2615573;54;20507;-76
2023/10/16 07:43:27;;;;;;;28.33;17.83;;;;;;;;;;2614438;54;20412;-75
2023/10/16 07:46:16;;;;;;;41.90;22.37;;;;;;;;;;2614822;54;20419;-76
2023/10/16 07:48:50;;;;;;;31.27;20.50;;;;;;;;;;2614826;54;20456;-75
2023/10/16 07:51:20;;;;;;;36.70;21.53;;;;;;;;;;2614092;54;20394;-75
2023/10/16 07:53:48;;;;;;;35.37;22.30;;;;;;;;;;2614874;54;20383;-75
2023/10/16 07:56:50;;;;;;;37.20;19.50;;;;;;;;;;2615630;39;20470;-75
2023/10/16 07:59:18;;;;;;;32.57;21.13;;;;;;;;;;2614522;54;20458;-75
2023/10/16 08:01:57;;;;;;;35.67;20.33;;;;;;;;;;2614684;54;20422;-74
2023/10/16 08:06:55;;;;;;;35.53;20.97;;;;;;;;;;2612699;54;21198;-73
2023/10/16 08:11:57;;;;;;;29.50;20.63;;;;;;;;;;2613373;54;20416;-73
2023/10/16 08:14:23;;;;;;;26.13;18.93;;;;;;;;;;2613611;39;20879;-73
2023/10/16 08:16:58;;;;;;;29.83;19.40;;;;;;;;;;2612982;54;20520;-73
2023/10/16 08:19:25;;;;;;;31.27;20.53;;;;;;;;;;2612461;47;20502;-74
2023/10/16 08:21:56;;;;;;;36.17;18.90;;;;;;;;;;2612358;54;20428;-75
2023/10/16 08:24:24;;;;;;;36.13;21.43;;;;;;;;;;2612362;54;20399;-74
2023/10/16 08:26:50;;;;;;;41.40;22.50;;;;;;;;;;2612680;54;20424;-75
2023/10/16 08:31:44;;;;;;;33.93;21.27;;;;;;;;;;2611201;54;20422;-75
2023/10/16 08:34:11;;;;;;;39.23;21.50;;;;;;;;;;2612924;54;20447;-75
2023/10/16 08:36:37;;;;;;;35.73;22.23;;;;;;;;;;2615813;39;20800;-75
2023/10/16 08:39:10;;;;;;;34.60;21.40;;;;;;;;;;2615717;54;20493;-75
2023/10/16 08:41:45;;;;;;;39.37;20.80;;;;;;;;;;2616312;54;20412;-75
2023/10/16 08:44:15;;;;;;;32.70;20.33;;;;;;;;;;2615173;46;20415;-76
2023/10/16 08:46:53;;;;;;;27.30;19.33;;;;;;;;;;2615574;54;20410;-74
2023/10/16 08:49:22;;;;;;;33.90;21.77;;;;;;;;;;2616626;54;20408;-75
2023/10/16 08:51:54;;;;;;;36.60;22.63;;;;;;;;;;2616360;54;20426;-75
2023/10/16 08:57:09;;;;;;;32.83;19.83;;;;;;;;;;2615360;54;20399;-75
2023/10/16 08:59:37;;;;;;;38.77;22.70;;;;;;;;;;2615443;54;20396;-76
2023/10/16 09:02:07;;;;;;;41.77;21.83;;;;;;;;;;2614528;54;20989;-76
2023/10/16 09:04:35;;;;;;;40.27;23.73;;;;;;;;;;2615056;54;20431;-76
2023/10/16 09:07:02;;;;;;;36.47;21.83;;;;;;;;;;2614834;54;21288;-77
2023/10/16 09:09:30;;;;;;;36.57;23.53;;;;;;;;;;2614487;54;20420;-75
2023/10/16 09:12:03;;;;;;;32.50;22.20;;;;;;;;;;2614046;54;20953;-75
2023/10/16 09:14:30;;;;;;;35.50;20.60;;;;;;;;;;2614460;47;20588;-76
2023/10/16 09:16:59;;;;;;;32.57;17.37;;;;;;;;;;2613515;47;20424;-75
2023/10/16 09:19:33;;;;;;;20.40;18.20;;;;;;;;;;2614478;54;20892;-76
2023/10/16 09:22:00;;;;;;;19.60;15.30;;;;;;;;;;2613046;54;20457;-75
2023/10/16 09:24:28;;;;;;;27.70;15.33;;;;;;;;;;2613325;51;20466;-75
2023/10/16 09:26:56;;;;;;;21.77;15.50;;;;;;;;;;2614360;54;20445;-75
2023/10/16 09:29:26;;;;;;;19.70;15.53;;;;;;;;;;2613386;54;20410;-75
2023/10/16 09:31:52;;;;;;;20.33;15.80;;;;;;;;;;2613663;54;20447;-75
2023/10/16 09:34:25;;;;;;;21.20;14.87;;;;;;;;;;2613309;47;20416;-75
2023/10/16 09:39:46;;;;;;;18.90;12.73;;;;;;;;;;2613747;54;20997;-76
2023/10/16 09:42:12;;;;;;;14.83;12.73;;;;;;;;;;2613684;54;20422;-75
2023/10/16 09:44:44;;;;;;;14.93;12.30;;;;;;;;;;2613765;54;20542;-75
2023/10/16 09:47:26;;;;;;;19.60;12.40;;;;;;;;;;2613155;47;20463;-75
2023/10/16 09:49:58;;;;;;;14.90;11.90;;;;;;;;;;2612608;47;20432;-75
2023/10/16 09:52:24;;;;;;;11.57;10.37;;;;;;;;;;2613871;54;20424;-75
2023/10/16 09:54:51;;;;;;;16.33;11.90;;;;;;;;;;2613312;54;20419;-75
2023/10/16 09:57:22;;;;;;;15.17;12.17;;;;;;;;;;2613619;54;20431;-75
2023/10/16 09:59:54;;;;;;;16.93;11.20;;;;;;;;;;2613321;54;20431;-75
2023/10/16 10:02:26;;;;;;;21.40;12.60;;;;;;;;;;2614333;39;20880;-75
2023/10/16 10:04:55;;;;;;;14.97;12.27;;;;;;;;;;2613993;54;20451;-74
2023/10/16 10:07:34;;;;;;;13.47;11.03;;;;;;;;;;2614354;39;20898;-75
2023/10/16 10:10:39;;;;;;;13.67;11.23;;;;;;;;;;2615329;54;20961;-75
2023/10/16 10:12:49;;;;;;;14.67;12.30;;;;;;;;;;2614503;54;20425;-75
2023/10/16 10:15:18;;;;;;;15.13;10.97;;;;;;;;;;2614172;46;20443;-75
2023/10/16 10:17:46;;;;;;;12.93;11.53;;;;;;;;;;2612952;54;20403;-73
2023/10/16 10:20:39;;;;;;;18.93;11.10;;;;;;;;;;2612869;54;20439;-76
2023/10/16 10:23:08;;;;;;;16.40;11.07;;;;;;;;;;2611960;47;20423;-74
2023/10/16 10:25:41;;;;;;;11.80;10.50;;;;;;;;;;2613007;54;20425;-74
2023/10/16 10:28:17;;;;;;;17.00;12.30;;;;;;;;;;2612448;39;20800;-74
2023/10/16 10:30:45;;;;;;;12.20;11.00;;;;;;;;;;2610852;54;20518;-74
2023/10/16 10:33:12;;;;;;;10.10;9.10;;;;;;;;;;2612433;54;20469;-74
2023/10/16 10:35:43;;;;;;;16.43;10.87;;;;;;;;;;2612633;54;20479;-74
2023/10/16 10:38:21;;;;;;;13.97;9.83;;;;;;;;;;2613329;39;20861;-74
2023/10/16 10:41:06;;;;;;;10.40;9.20;;;;;;;;;;2612427;47;20419;-73
2023/10/16 10:43:46;;;;;;;12.00;10.80;;;;;;;;;;2611457;54;20399;-73
2023/10/16 10:46:12;;;;;;;13.07;9.57;;;;;;;;;;2612439;54;20418;-73
2023/10/16 10:48:46;;;;;;;13.03;10.87;;;;;;;;;;2610908;54;21295;-73
2023/10/16 10:51:16;;;;;;;12.50;11.10;;;;;;;;;;2612406;54;20434;-73
2023/10/16 10:53:54;;;;;;;15.77;11.10;;;;;;;;;;2612620;54;20511;-73
2023/10/16 10:56:20;;;;;;;11.10;10.00;;;;;;;;;;2612328;39;20427;-75
2023/10/16 10:58:47;;;;;;;14.00;11.17;;;;;;;;;;2611137;54;20396;-75
2023/10/16 11:01:16;;;;;;;19.83;11.73;;;;;;;;;;2613037;39;20830;-75
2023/10/16 11:03:46;;;;;;;10.50;9.60;;;;;;;;;;2612316;54;20397;-75
2023/10/16 11:06:17;;;;;;;14.07;12.50;;;;;;;;;;2611980;47;20565;-76
2023/10/16 11:08:44;;;;;;;12.10;10.90;;;;;;;;;;2612446;54;20468;-75
2023/10/16 11:11:10;;;;;;;11.43;10.40;;;;;;;;;;2612480;54;20415;-75
2023/10/16 11:13:47;;;;;;;10.33;9.33;;;;;;;;;;2611052;54;20410;-76
2023/10/16 11:16:14;;;;;;;13.67;10.20;;;;;;;;;;2612525;39;20783;-75
2023/10/16 11:18:43;;;;;;;11.27;10.27;;;;;;;;;;2611399;47;20442;-76
2023/10/16 11:21:09;;;;;;;9.87;8.97;;;;;;;;;;2612424;54;20404;-75
2023/10/16 11:23:40;;;;;;;10.40;9.50;;;;;;;;;;2612411;54;20515;-75
2023/10/16 11:26:13;;;;;;;10.40;9.30;;;;;;;;;;2612788;54;21007;-75
2023/10/16 11:28:48;;;;;;;17.20;10.17;;;;;;;;;;2614673;54;20420;-75
2023/10/16 11:31:17;;;;;;;12.20;10.33;;;;;;;;;;2614191;54;20475;-75
2023/10/16 11:33:44;;;;;;;11.30;10.30;;;;;;;;;;2614940;39;20793;-75
2023/10/16 11:36:15;;;;;;;10.93;9.80;;;;;;;;;;2614989;54;20431;-75
2023/10/16 11:38:48;;;;;;;9.90;8.90;;;;;;;;;;2614086;54;20980;-76
2023/10/16 11:41:19;;;;;;;9.57;8.50;;;;;;;;;;2614461;51;20423;-76
2023/10/16 11:43:54;;;;;;;11.50;8.90;;;;;;;;;;2614267;54;20396;-76
2023/10/16 11:46:34;;;;;;;9.93;8.70;;;;;;;;;;2614765;54;21058;-75
2023/10/16 11:49:51;;;;;;;9.33;8.63;;;;;;;;;;2614206;51;21030;-75
2023/10/16 11:51:58;;;;;;;9.87;8.97;;;;;;;;;;2615180;39;20807;-74
2023/10/16 11:54:25;;;;;;;13.07;9.57;;;;;;;;;;2614876;54;20573;-76
2023/10/16 11:56:55;;;;;;;10.27;9.47;;;;;;;;;;2614688;39;21140;-75
2023/10/16 11:59:25;;;;;;;15.37;13.70;;;;;;;;;;2615502;54;20909;-75
2023/10/16 12:02:01;;;;;;;15.20;11.60;;;;;;;;;;2615533;54;20408;-75
2023/10/16 12:04:27;;;;;;;15.90;10.43;;;;;;;;;;2614672;39;20816;-76
2023/10/16 12:06:53;;;;;;;10.93;9.80;;;;;;;;;;2611331;54;20421;-76
2023/10/16 12:09:20;;;;;;;11.93;10.30;;;;;;;;;;2612053;39;21253;-76
2023/10/16 12:11:51;;;;;;;13.00;9.80;;;;;;;;;;2611018;54;20427;-75
2023/10/16 12:14:18;;;;;;;13.50;7.90;;;;;;;;;;2611190;54;20411;-74
2023/10/16 12:16:48;;;;;;;9.03;8.23;;;;;;;;;;2611371;47;20428;-76
2023/10/16 12:19:16;;;;;;;10.13;9.23;;;;;;;;;;2612660;39;20811;-73
2023/10/16 12:21:43;;;;;;;10.03;9.23;;;;;;;;;;2610396;54;21039;-75
2023/10/16 12:24:13;;;;;;;10.43;9.63;;;;;;;;;;2613271;54;20396;-75
2023/10/16 12:26:40;;;;;;;9.50;8.13;;;;;;;;;;2612030;54;20395;-74
2023/10/16 12:29:08;;;;;;;10.50;9.47;;;;;;;;;;2613133;54;20953;-75
2023/10/16 12:31:34;;;;;;;8.70;7.47;;;;;;;;;;2611099;54;21395;-75
2023/10/16 12:34:00;;;;;;;9.63;7.73;;;;;;;;;;2612982;54;20422;-76
2023/10/16 12:36:26;;;;;;;8.47;7.67;;;;;;;;;;2613541;54;20408;-75
2023/10/16 12:38:53;;;;;;;8.80;7.30;;;;;;;;;;2612657;54;20441;-76
2023/10/16 12:41:20;;;;;;;10.70;8.10;;;;;;;;;;2612306;47;21013;-75
2023/10/16 12:43:47;;;;;;;10.53;9.67;;;;;;;;;;2612744;54;20514;-72
2023/10/16 12:46:13;;;;;;;10.23;8.53;;;;;;;;;;2613930;39;20794;-75
2023/10/16 12:48:39;;;;;;;9.33;8.53;;;;;;;;;;2611454;39;20801;-76
2023/10/16 12:51:10;;;;;;;10.53;9.50;;;;;;;;;;2612316;54;20415;-76
2023/10/16 12:53:36;;;;;;;9.70;8.90;;;;;;;;;;2613547;39;20827;-76
2023/10/16 12:56:05;;;;;;;10.27;9.47;;;;;;;;;;2613217;54;20519;-76
2023/10/16 12:58:31;;;;;;;9.97;9.10;;;;;;;;;;2611316;54;20963;-76
2023/10/16 13:00:58;;;;;;;12.53;9.00;;;;;;;;;;2612897;54;20407;-76
2023/10/16 13:03:25;;;;;;;10.87;9.50;;;;;;;;;;2612426;54;20957;-77
2023/10/16 13:05:52;;;;;;;9.70;9.00;;;;;;;;;;2612443;54;20427;-76
2023/10/16 13:08:21;;;;;;;11.03;10.03;;;;;;;;;;2612775;46;20455;-77
2023/10/16 13:10:52;;;;;;;10.90;9.67;;;;;;;;;;2613033;54;20441;-75
2023/10/16 13:13:21;;;;;;;11.13;9.83;;;;;;;;;;2612063;51;20619;-76
2023/10/16 13:15:51;;;;;;;10.80;9.80;;;;;;;;;;2612287;54;20441;-76
2023/10/16 13:18:24;;;;;;;10.83;10.03;;;;;;;;;;2613316;54;20528;-74
2023/10/16 13:20:57;;;;;;;11.27;10.37;;;;;;;;;;2613757;39;20895;-75
2023/10/16 13:23:24;;;;;;;11.30;10.40;;;;;;;;;;2611848;54;20424;-76
2023/10/16 13:25:50;;;;;;;11.57;10.40;;;;;;;;;;2613123;54;20416;-74
2023/10/16 13:28:16;;;;;;;11.47;10.40;;;;;;;;;;2611839;54;20416;-75
2023/10/16 13:30:42;;;;;;;10.77;9.83;;;;;;;;;;2612240;54;20404;-74
2023/10/16 13:33:09;;;;;;;11.97;10.93;;;;;;;;;;2612930;54;20469;-74
2023/10/16 13:35:38;;;;;;;11.00;9.83;;;;;;;;;;2613119;54;20415;-75
2023/10/16 13:38:07;;;;;;;12.00;10.83;;;;;;;;;;2613213;54;20400;-75
2023/10/16 13:40:34;;;;;;;9.70;8.80;;;;;;;;;;2612493;51;20416;-75
2023/10/16 13:43:10;;;;;;;10.43;9.53;;;;;;;;;;2613156;54;20462;-75
2023/10/16 13:45:38;;;;;;;9.93;9.13;;;;;;;;;;2611916;47;20419;-76
2023/10/16 13:48:04;;;;;;;11.40;8.47;;;;;;;;;;2612708;54;20446;-75
2023/10/16 13:50:32;;;;;;;9.47;8.67;;;;;;;;;;2613246;54;20971;-74
2023/10/16 13:52:58;;;;;;;10.60;9.17;;;;;;;;;;2612417;54;20412;-74
2023/10/16 13:55:30;;;;;;;8.30;7.60;;;;;;;;;;2613767;54;20442;-75
2023/10/16 13:57:56;;;;;;;8.13;7.43;;;;;;;;;;2611548;54;20523;-76
2023/10/16 14:00:28;;;;;;;8.13;7.40;;;;;;;;;;2613217;54;20546;-73
2023/10/16 14:05:52;;;;;;;9.50;8.60;;;;;;;;;;2612386;46;20451;-74
2023/10/16 14:08:25;;;;;;;8.77;8.00;;;;;;;;;;2612444;54;20515;-74
2023/10/16 14:10:52;;;;;;;10.00;9.30;;;;;;;;;;2612954;54;20927;-73
2023/10/16 14:13:26;;;;;;;9.87;9.03;;;;;;;;;;2612933;54;20429;-74
2023/10/16 14:15:57;;;;;;;10.40;8.47;;;;;;;;;;2613433;39;20624;-75
2023/10/16 14:18:29;;;;;;;8.20;7.50;;;;;;;;;;2611893;54;20445;-74
2023/10/16 14:20:56;;;;;;;8.30;6.70;;;;;;;;;;2613037;54;20410;-73
2023/10/16 14:23:28;;;;;;;8.00;7.30;;;;;;;;;;2612393;51;20483;-74
2023/10/16 14:25:58;;;;;;;10.20;7.63;;;;;;;;;;2613002;54;20407;-74
2023/10/16 14:28:28;;;;;;;8.20;7.50;;;;;;;;;;2612289;47;20453;-75
2023/10/16 14:30:59;;;;;;;8.83;7.70;;;;;;;;;;2613059;54;20945;-76
2023/10/16 14:33:28;;;;;;;8.80;7.87;;;;;;;;;;2613126;54;20405;-76
2023/10/16 14:35:58;;;;;;;8.03;7.37;;;;;;;;;;2612371;39;21108;-74
2023/10/16 14:38:24;;;;;;;7.87;7.10;;;;;;;;;;2613081;54;20416;-74
2023/10/16 14:40:55;;;;;;;8.23;7.73;;;;;;;;;;2612971;54;20409;-76
2023/10/16 14:43:21;;;;;;;8.43;7.63;;;;;;;;;;2612899;54;20572;-74
2023/10/16 14:45:48;;;;;;;8.50;7.40;;;;;;;;;;2612668;54;20416;-73
2023/10/16 14:48:17;;;;;;;8.57;7.97;;;;;;;;;;2612151;54;20396;-74
2023/10/16 14:50:46;;;;;;;7.33;6.73;;;;;;;;;;2612320;47;20442;-73
2023/10/16 14:53:13;;;;;;;8.00;7.27;;;;;;;;;;2612266;54;20921;-73
2023/10/16 14:55:42;;;;;;;10.00;8.57;;;;;;;;;;2611613;54;20388;-74
2023/10/16 14:58:10;;;;;;;7.70;6.90;;;;;;;;;;2611998;54;20415;-75
2023/10/16 15:00:41;;;;;;;7.67;6.80;;;;;;;;;;2612259;54;20414;-75
2023/10/16 15:03:10;;;;;;;7.53;6.67;;;;;;;;;;2612990;39;20848;-74
2023/10/16 15:05:39;;;;;;;7.90;7.23;;;;;;;;;;2612505;54;20396;-74
2023/10/16 15:08:06;;;;;;;16.63;7.20;;;;;;;;;;2612406;39;21198;-76
2023/10/16 15:10:32;;;;;;;10.50;7.43;;;;;;;;;;2612539;54;20411;-76
2023/10/16 15:13:00;;;;;;;12.53;7.60;;;;;;;;;;2611848;47;20419;-76
2023/10/16 15:15:27;;;;;;;7.57;6.90;;;;;;;;;;2612625;54;21302;-76
2023/10/16 15:17:54;;;;;;;8.63;7.73;;;;;;;;;;2611575;54;20406;-76
2023/10/16 15:20:22;;;;;;;7.40;6.80;;;;;;;;;;2612888;47;21509;-77
2023/10/16 15:22:48;;;;;;;8.63;7.90;;;;;;;;;;2612316;54;20483;-76
2023/10/16 15:25:14;;;;;;;8.87;7.00;;;;;;;;;;2612101;54;20447;-75
2023/10/16 15:27:46;;;;;;;8.10;7.40;;;;;;;;;;2612811;54;20937;-76
2023/10/16 15:30:12;;;;;;;10.93;6.80;;;;;;;;;;2612526;54;20973;-76
2023/10/16 15:32:39;;;;;;;9.20;8.30;;;;;;;;;;2611644;54;20439;-76
2023/10/16 15:35:08;;;;;;;9.23;8.33;;;;;;;;;;2610993;50;20427;-76
2023/10/16 15:37:40;;;;;;;16.47;8.23;;;;;;;;;;2612016;54;20419;-73
2023/10/16 15:40:06;;;;;;;11.00;8.00;;;;;;;;;;2613089;54;20981;-76
2023/10/16 15:42:33;;;;;;;10.17;7.90;;;;;;;;;;2613117;54;20399;-75
2023/10/16 15:45:00;;;;;;;10.23;7.60;;;;;;;;;;2613016;54;20400;-75
2023/10/16 15:47:26;;;;;;;8.63;7.73;;;;;;;;;;2611969;54;20996;-75
2023/10/16 15:49:54;;;;;;;9.33;7.27;;;;;;;;;;2612399;54;20999;-75
2023/10/16 15:52:21;;;;;;;12.00;7.53;;;;;;;;;;2612925;54;21260;-75
2023/10/16 15:54:49;;;;;;;8.53;7.80;;;;;;;;;;2612954;39;20912;-74
2023/10/16 15:57:15;;;;;;;7.93;6.90;;;;;;;;;;2613735;54;20395;-75
2023/10/16 15:59:42;;;;;;;8.40;7.60;;;;;;;;;;2614232;54;20554;-75
2023/10/16 16:02:16;;;;;;;8.00;7.40;;;;;;;;;;2612952;54;20442;-75
2023/10/16 16:04:44;;;;;;;8.27;7.47;;;;;;;;;;2614052;54;20454;-75
2023/10/16 16:07:11;;;;;;;11.50;8.60;;;;;;;;;;2614009;54;20368;-75
2023/10/16 16:09:38;;;;;;;8.50;7.70;;;;;;;;;;2613594;54;20506;-75
2023/10/16 16:12:06;;;;;;;8.93;7.50;;;;;;;;;;2613709;54;20415;-75
2023/10/16 16:14:33;;;;;;;10.53;7.90;;;;;;;;;;2613176;54;20458;-76